createdAt,value
2018-07-12T00:00:36.214Z,99.90
2018-07-12T00:03:03.494Z,99.90
2018-07-12T00:05:30.794Z,99.90
2018-07-12T00:07:58.064Z,99.90
2018-07-12T00:10:25.337Z,99.90
2018-07-12T00:12:52.620Z,99.90
2018-07-12T00:15:19.905Z,99.90
2018-07-12T00:17:47.163Z,99.90
2018-07-12T00:20:14.432Z,99.90
2018-07-12T00:22:41.756Z,99.90
2018-07-12T00:25:09.238Z,99.90
2018-07-12T00:27:36.680Z,99.90
2018-07-12T00:30:04.058Z,99.90
2018-07-12T00:32:31.324Z,99.90
2018-07-12T00:34:58.570Z,99.90
2018-07-12T00:37:25.848Z,99.90
2018-07-12T00:39:53.119Z,99.90
2018-07-12T00:42:20.651Z,99.90
2018-07-12T00:44:47.960Z,99.90
2018-07-12T00:47:15.281Z,99.90
2018-07-12T00:49:42.575Z,99.90
2018-07-12T00:52:09.885Z,99.90
2018-07-12T00:57:11.544Z,99.90
2018-07-12T00:59:38.858Z,99.90
2018-07-12T01:02:06.276Z,99.90
2018-07-12T01:04:33.817Z,99.90
2018-07-12T01:07:01.103Z,99.90
2018-07-12T01:09:28.422Z,99.90
2018-07-12T01:11:55.706Z,99.90
2018-07-12T01:14:22.976Z,99.90
2018-07-12T01:16:50.314Z,99.90
2018-07-12T01:19:17.594Z,99.90
2018-07-12T01:21:44.874Z,99.90
2018-07-12T01:24:12.160Z,99.90
2018-07-12T01:26:39.442Z,99.90
2018-07-12T01:29:06.804Z,99.90
2018-07-12T01:31:34.090Z,99.90
2018-07-12T01:34:01.362Z,99.90
2018-07-12T01:36:28.633Z,99.90
2018-07-12T01:38:55.886Z,99.90
2018-07-12T01:41:23.203Z,99.90
2018-07-12T01:43:50.478Z,99.90
2018-07-12T01:46:17.745Z,99.90
2018-07-12T01:48:45.011Z,99.90
2018-07-12T01:51:12.317Z,99.90
2018-07-12T01:53:39.616Z,99.90
2018-07-12T01:56:06.897Z,99.90
2018-07-12T01:58:34.197Z,99.90
2018-07-12T02:01:01.470Z,99.90
2018-07-12T02:03:28.733Z,99.90
2018-07-12T02:05:55.994Z,99.90
2018-07-12T02:08:23.295Z,99.90
2018-07-12T02:10:50.609Z,99.90
2018-07-12T02:13:17.871Z,99.90
2018-07-12T02:15:45.152Z,99.90
2018-07-12T02:18:12.451Z,99.90
2018-07-12T02:20:39.737Z,99.90
2018-07-12T02:23:07.017Z,99.90
2018-07-12T02:25:34.289Z,99.90
2018-07-12T02:28:01.602Z,99.90
2018-07-12T02:30:28.890Z,99.90
2018-07-12T02:32:56.180Z,99.90
2018-07-12T02:35:23.450Z,99.90
2018-07-12T02:37:50.756Z,99.90
2018-07-12T02:40:18.068Z,99.90
2018-07-12T02:42:45.333Z,99.90
2018-07-12T02:45:12.604Z,99.90
2018-07-12T02:47:39.862Z,99.90
2018-07-12T02:50:07.136Z,99.90
2018-07-12T02:52:34.412Z,99.90
2018-07-12T02:55:01.706Z,99.90
2018-07-12T02:57:28.990Z,99.90
2018-07-12T02:59:56.256Z,99.90
2018-07-12T03:02:23.536Z,99.90
2018-07-12T03:04:50.827Z,99.90
2018-07-12T03:07:18.159Z,99.90
2018-07-12T03:09:45.415Z,99.90
2018-07-12T03:12:12.696Z,99.90
2018-07-12T03:14:39.979Z,99.90
2018-07-12T03:17:07.255Z,99.90
2018-07-12T03:19:34.550Z,99.90
2018-07-12T03:22:01.818Z,99.90
2018-07-12T03:24:29.085Z,99.90
2018-07-12T03:26:56.366Z,99.90
2018-07-12T03:29:23.644Z,99.90
2018-07-12T03:31:50.992Z,99.90
2018-07-12T03:34:18.314Z,99.90
2018-07-12T03:36:45.602Z,99.90
2018-07-12T03:39:12.874Z,99.90
2018-07-12T03:41:40.146Z,99.90
2018-07-12T03:44:07.430Z,99.90
2018-07-12T03:46:34.692Z,99.90
2018-07-12T03:49:01.946Z,99.90
2018-07-12T03:51:29.246Z,99.90
2018-07-12T03:53:56.622Z,99.90
2018-07-12T03:56:23.864Z,99.90
2018-07-12T03:58:51.166Z,99.90
2018-07-12T04:01:18.442Z,99.90
2018-07-12T04:03:45.700Z,99.90
2018-07-12T04:06:12.975Z,99.90
2018-07-12T04:08:40.281Z,99.90
2018-07-12T04:11:07.580Z,99.90
2018-07-12T04:13:34.870Z,99.90
2018-07-12T04:16:02.134Z,99.90
2018-07-12T04:18:29.393Z,99.90
2018-07-12T04:20:56.664Z,99.90
2018-07-12T04:23:24.002Z,99.90
2018-07-12T04:25:51.299Z,99.90
2018-07-12T04:28:18.554Z,99.90
2018-07-12T04:30:45.851Z,99.90
2018-07-12T04:33:13.194Z,99.90
2018-07-12T04:35:40.468Z,99.90
2018-07-12T04:38:07.762Z,99.90
2018-07-12T04:40:35.135Z,99.90
2018-07-12T04:43:02.404Z,99.90
2018-07-12T04:45:29.717Z,99.90
2018-07-12T04:47:57.047Z,99.90
2018-07-12T04:50:24.324Z,99.90
2018-07-12T04:52:51.588Z,99.90
2018-07-12T04:55:18.860Z,99.90
2018-07-12T04:57:46.135Z,99.90
2018-07-12T05:00:14.246Z,99.90
2018-07-12T05:02:41.505Z,99.90
2018-07-12T05:05:08.794Z,99.90
2018-07-12T05:07:36.090Z,99.90
2018-07-12T05:10:03.410Z,99.90
2018-07-12T05:12:30.721Z,99.90
2018-07-12T05:14:57.983Z,99.90
2018-07-12T05:17:25.317Z,99.90
2018-07-12T05:19:52.608Z,99.90
2018-07-12T05:22:19.919Z,99.90
2018-07-12T05:24:47.285Z,99.90
2018-07-12T05:27:14.575Z,99.90
2018-07-12T05:29:41.845Z,99.90
2018-07-12T05:32:09.149Z,99.90
2018-07-12T05:34:36.431Z,99.90
2018-07-12T05:37:05.427Z,99.90
2018-07-12T05:39:33.694Z,99.90
2018-07-12T05:42:01.962Z,99.90
2018-07-12T05:44:30.235Z,99.90
2018-07-12T05:46:58.513Z,99.90
2018-07-12T05:49:26.793Z,99.90
2018-07-12T05:51:59.246Z,99.90
2018-07-12T05:54:27.650Z,99.90
2018-07-12T05:56:55.927Z,99.90
2018-07-12T05:59:24.301Z,99.90
2018-07-12T06:02:03.891Z,99.90
2018-07-12T06:04:32.177Z,99.90
2018-07-12T06:07:00.443Z,99.90
2018-07-12T06:09:28.721Z,99.90
2018-07-12T06:11:57.003Z,99.90
2018-07-12T06:14:25.249Z,99.90
2018-07-12T06:16:53.595Z,99.90
2018-07-12T06:19:22.265Z,99.90
2018-07-12T06:21:50.558Z,99.90
2018-07-12T06:24:18.855Z,99.90
2018-07-12T06:26:47.108Z,99.90
2018-07-12T06:29:15.387Z,99.90
2018-07-12T06:31:43.662Z,99.90
2018-07-12T06:34:11.989Z,99.90
2018-07-12T06:36:40.267Z,99.90
2018-07-12T06:39:09.742Z,99.90
2018-07-12T06:41:38.283Z,99.90
2018-07-12T06:44:06.563Z,99.90
2018-07-12T06:46:35.125Z,99.90
2018-07-12T06:49:03.496Z,99.90
2018-07-12T06:51:31.775Z,99.90
2018-07-12T06:54:00.157Z,99.90
2018-07-12T06:56:28.437Z,99.90
2018-07-12T06:58:56.705Z,99.90
2018-07-12T07:01:25.024Z,99.90
2018-07-12T07:03:53.390Z,99.90
2018-07-12T07:06:21.686Z,99.90
2018-07-12T07:08:49.943Z,99.90
2018-07-12T07:11:18.233Z,99.90
2018-07-12T07:13:46.613Z,99.90
2018-07-12T07:16:14.864Z,99.90
2018-07-12T07:18:43.168Z,99.90
2018-07-12T07:21:11.462Z,99.90
2018-07-12T07:23:39.752Z,99.90
2018-07-12T07:26:08.069Z,99.90
2018-07-12T07:28:36.349Z,99.90
2018-07-12T07:31:04.696Z,99.90
2018-07-12T07:33:33.026Z,99.90
2018-07-12T07:36:01.450Z,99.90
2018-07-12T07:38:30.436Z,99.90
2018-07-12T07:40:58.746Z,99.90
2018-07-12T07:43:27.052Z,99.90
2018-07-12T07:45:55.415Z,99.90
2018-07-12T07:48:23.673Z,99.90
2018-07-12T07:50:52.058Z,99.90
2018-07-12T07:53:20.322Z,99.90
2018-07-12T07:55:48.720Z,99.90
2018-07-12T07:58:17.020Z,99.90
2018-07-12T08:00:45.284Z,99.90
2018-07-12T08:03:13.566Z,99.90
2018-07-12T08:05:41.840Z,99.90
2018-07-12T08:08:10.138Z,99.90
2018-07-12T08:10:38.394Z,99.90
2018-07-12T08:13:06.648Z,99.90
2018-07-12T08:15:34.898Z,99.90
2018-07-12T08:18:03.183Z,99.90
2018-07-12T08:20:31.450Z,99.90
2018-07-12T08:22:59.740Z,99.90
2018-07-12T08:25:27.998Z,99.90
2018-07-12T08:28:07.594Z,99.90
2018-07-12T08:30:35.899Z,99.90
2018-07-12T08:33:04.152Z,99.90
2018-07-12T08:35:32.433Z,99.90
2018-07-12T08:38:00.687Z,99.90
2018-07-12T08:40:29.018Z,99.90
2018-07-12T08:42:57.323Z,99.90
2018-07-12T08:45:25.905Z,99.90
2018-07-12T08:47:54.179Z,99.90
2018-07-12T08:50:22.435Z,99.90
2018-07-12T08:52:50.705Z,99.90
2018-07-12T08:55:19.015Z,99.90
2018-07-12T08:57:47.409Z,99.90
2018-07-12T09:00:15.690Z,99.90
2018-07-12T09:02:44.093Z,99.90
2018-07-12T09:05:12.345Z,99.90
2018-07-12T09:07:40.613Z,99.90
2018-07-12T09:10:08.881Z,99.90
2018-07-12T09:12:37.177Z,99.90
2018-07-12T09:15:05.439Z,99.90
2018-07-12T09:17:33.789Z,99.90
2018-07-12T09:20:02.119Z,99.90
2018-07-12T09:22:30.457Z,99.90
2018-07-12T09:24:58.725Z,99.90
2018-07-12T09:27:27.000Z,99.90
2018-07-12T09:29:55.369Z,99.90
2018-07-12T09:32:23.661Z,99.90
2018-07-12T09:34:51.936Z,99.90
2018-07-12T09:37:20.208Z,99.90
2018-07-12T09:39:48.543Z,99.90
2018-07-12T09:42:16.788Z,99.90
2018-07-12T09:44:45.073Z,99.90
2018-07-12T09:47:13.413Z,99.90
2018-07-12T09:49:41.651Z,99.90
2018-07-12T09:52:15.327Z,99.90
2018-07-12T09:54:43.629Z,99.90
2018-07-12T09:57:23.154Z,99.90
2018-07-12T09:59:51.508Z,99.90
2018-07-12T10:02:31.652Z,99.90
2018-07-12T10:04:59.959Z,99.90
2018-07-12T10:07:35.484Z,99.90
2018-07-12T10:10:04.265Z,99.90
2018-07-12T10:12:37.860Z,99.90
2018-07-12T10:15:10.977Z,99.90
2018-07-12T10:17:48.466Z,99.90
2018-07-12T10:20:16.861Z,99.90
2018-07-12T10:22:45.171Z,99.90
2018-07-12T10:25:14.133Z,99.90
2018-07-12T10:27:42.515Z,99.90
2018-07-12T10:30:10.788Z,99.90
2018-07-12T10:32:39.049Z,99.90
2018-07-12T10:35:07.311Z,99.90
2018-07-12T10:37:35.580Z,99.90
2018-07-12T10:40:03.926Z,99.90
2018-07-12T10:42:32.239Z,99.90
2018-07-12T10:45:00.570Z,99.90
2018-07-12T10:47:28.889Z,99.90
2018-07-12T10:49:57.145Z,99.90
2018-07-12T10:52:25.428Z,99.90
2018-07-12T10:54:53.725Z,99.90
2018-07-12T10:57:22.041Z,99.90
2018-07-12T10:59:50.311Z,99.90
2018-07-12T11:02:18.619Z,99.90
2018-07-12T11:04:46.905Z,99.90
2018-07-12T11:07:15.199Z,99.90
2018-07-12T11:09:43.550Z,99.90
2018-07-12T11:12:11.827Z,99.90
2018-07-12T11:14:40.101Z,99.90
2018-07-12T11:17:08.367Z,99.90
2018-07-12T11:19:36.659Z,99.90
2018-07-12T11:22:05.047Z,99.90
2018-07-12T11:24:33.323Z,99.90
2018-07-12T11:27:01.567Z,99.90
2018-07-12T11:29:41.163Z,99.90
2018-07-12T11:32:09.415Z,99.90
2018-07-12T11:34:37.853Z,99.90
2018-07-12T11:37:06.222Z,99.90
2018-07-12T11:39:34.429Z,99.90
2018-07-12T11:42:02.717Z,99.90
2018-07-12T11:44:31.564Z,99.90
2018-07-12T11:46:59.889Z,99.90
2018-07-12T11:49:28.163Z,99.90
2018-07-12T11:51:56.579Z,99.90
2018-07-12T11:54:24.907Z,99.90
2018-07-12T11:56:53.280Z,99.90
2018-07-12T11:59:21.595Z,99.90
2018-07-12T12:01:49.944Z,99.90
2018-07-12T12:04:18.203Z,99.90
2018-07-12T12:06:46.590Z,99.90
2018-07-12T12:09:14.903Z,99.90
2018-07-12T12:11:43.331Z,99.90
2018-07-12T12:14:11.743Z,99.90
2018-07-12T12:16:40.020Z,99.90
2018-07-12T12:19:08.329Z,99.90
2018-07-12T12:21:36.624Z,99.90
2018-07-12T12:24:04.959Z,99.90
2018-07-12T12:26:33.267Z,99.90
2018-07-12T12:29:01.590Z,99.90
2018-07-12T12:31:29.923Z,99.90
2018-07-12T12:33:58.178Z,99.90
2018-07-12T12:36:26.929Z,99.90
2018-07-12T12:38:55.237Z,99.90
2018-07-12T12:41:23.523Z,99.90
2018-07-12T12:43:51.998Z,99.90
2018-07-12T12:46:20.298Z,99.90
2018-07-12T12:48:48.641Z,99.90
2018-07-12T12:51:17.013Z,99.90
2018-07-12T12:53:45.272Z,99.90
2018-07-12T12:56:13.575Z,99.90
2018-07-12T12:58:41.855Z,99.90
2018-07-12T13:01:10.231Z,99.90
2018-07-12T13:03:38.494Z,99.90
2018-07-12T13:06:07.119Z,99.90
2018-07-12T13:08:35.521Z,99.90
2018-07-12T13:11:03.808Z,99.90
2018-07-12T13:13:32.098Z,99.90
2018-07-12T13:16:00.474Z,99.90
2018-07-12T13:18:29.037Z,99.90
2018-07-12T13:20:57.333Z,99.90
2018-07-12T13:23:25.625Z,99.90
2018-07-12T13:25:54.108Z,99.90
2018-07-12T13:28:22.295Z,99.90
2018-07-12T13:30:50.585Z,99.90
2018-07-12T13:33:18.939Z,99.90
2018-07-12T13:35:48.039Z,99.90
2018-07-12T13:38:16.471Z,99.90
2018-07-12T13:40:44.843Z,99.70
2018-07-12T13:43:13.106Z,98.30
2018-07-12T13:45:41.409Z,96.30
2018-07-12T13:48:09.657Z,96.70
2018-07-12T13:50:37.945Z,96.60
2018-07-12T13:53:06.515Z,97.40
2018-07-12T13:55:34.851Z,96.90
2018-07-12T13:58:03.157Z,96.00
2018-07-12T14:00:31.410Z,94.70
2018-07-12T14:02:59.692Z,94.90
2018-07-12T14:05:27.963Z,94.70
2018-07-12T14:07:56.235Z,94.50
2018-07-12T14:10:24.575Z,94.20
2018-07-12T14:12:53.003Z,94.40
2018-07-12T14:15:21.516Z,93.50
2018-07-12T14:17:50.019Z,92.90
2018-07-12T14:20:18.327Z,92.90
2018-07-12T14:22:46.605Z,92.60
2018-07-12T14:25:14.898Z,92.20
2018-07-12T14:27:43.203Z,92.20
2018-07-12T14:30:11.511Z,92.30
2018-07-12T14:32:39.775Z,91.30
2018-07-12T14:35:08.049Z,91.20
2018-07-12T14:37:36.363Z,89.90
2018-07-12T14:40:04.677Z,86.80
2018-07-12T14:42:32.952Z,85.60
2018-07-12T14:45:01.292Z,85.60
2018-07-12T14:47:29.559Z,84.30
2018-07-12T14:49:57.816Z,85.80
2018-07-12T14:52:26.169Z,82.00
2018-07-12T14:54:54.469Z,85.10
2018-07-12T14:57:22.707Z,86.60
2018-07-12T14:59:51.030Z,84.10
2018-07-12T15:02:19.327Z,85.00
2018-07-12T15:04:47.604Z,83.40
2018-07-12T15:07:15.966Z,84.60
2018-07-12T15:09:44.299Z,84.00
2018-07-12T15:12:12.571Z,83.60
2018-07-12T15:14:41.005Z,83.00
2018-07-12T15:17:09.259Z,82.50
2018-07-12T15:19:37.541Z,84.80
2018-07-12T15:22:05.871Z,83.10
2018-07-12T15:24:34.246Z,83.00
2018-07-12T15:27:02.547Z,82.40
2018-07-12T15:29:30.982Z,83.10
2018-07-12T15:31:59.226Z,84.40
2018-07-12T15:34:27.530Z,85.50
2018-07-12T15:36:55.832Z,85.00
2018-07-12T15:39:24.271Z,85.20
2018-07-12T15:41:52.667Z,86.60
2018-07-12T15:44:20.921Z,88.10
2018-07-12T15:46:49.208Z,86.30
2018-07-12T15:49:17.491Z,87.80
2018-07-12T15:51:45.824Z,87.90
2018-07-12T15:54:15.557Z,88.70
2018-07-12T15:56:43.805Z,87.80
2018-07-12T15:59:12.111Z,85.30
2018-07-12T16:01:40.389Z,90.00
2018-07-12T16:04:08.995Z,90.90
2018-07-12T16:06:37.554Z,90.80
2018-07-12T16:09:08.011Z,90.80
2018-07-12T16:11:36.536Z,85.20
2018-07-12T16:14:05.140Z,85.40
2018-07-12T16:16:33.705Z,88.10
2018-07-12T16:19:02.250Z,88.50
2018-07-12T16:21:30.797Z,89.10
2018-07-12T16:23:59.406Z,90.30
2018-07-12T16:26:27.971Z,90.70
2018-07-12T16:28:56.541Z,87.60
2018-07-12T16:31:25.149Z,87.90
2018-07-12T16:33:53.738Z,90.10
2018-07-12T16:36:22.254Z,91.30
2018-07-12T16:38:50.805Z,91.80
2018-07-12T16:41:19.334Z,91.20
2018-07-12T16:43:47.855Z,91.50
2018-07-12T16:46:16.338Z,91.30
2018-07-12T16:48:44.878Z,91.70
2018-07-12T16:51:13.407Z,91.30
2018-07-12T16:53:41.916Z,91.60
2018-07-12T16:56:10.461Z,91.40
2018-07-12T16:58:38.982Z,91.90
2018-07-12T17:01:07.519Z,92.50
2018-07-12T17:03:36.081Z,91.00
2018-07-12T17:06:04.614Z,92.30
2018-07-12T17:08:33.128Z,91.10
2018-07-12T17:11:01.735Z,91.60
2018-07-12T17:13:30.769Z,91.00
2018-07-12T17:15:59.285Z,91.00
2018-07-12T17:18:27.825Z,91.40
2018-07-12T17:20:56.433Z,91.50
2018-07-12T17:23:24.966Z,92.30
2018-07-12T17:25:53.569Z,92.80
2018-07-12T17:28:22.128Z,93.30
2018-07-12T17:30:50.749Z,93.20
2018-07-12T17:33:19.375Z,93.60
2018-07-12T17:35:48.013Z,93.70
2018-07-12T17:38:16.570Z,94.00
2018-07-12T17:40:45.157Z,93.50
2018-07-12T17:43:13.669Z,93.10
2018-07-12T17:45:42.265Z,93.30
2018-07-12T17:48:10.842Z,93.70
2018-07-12T17:50:39.477Z,94.20
2018-07-12T17:53:08.481Z,94.00
2018-07-12T17:55:37.085Z,94.10
2018-07-12T17:58:05.689Z,94.20
2018-07-12T18:00:34.254Z,94.80
2018-07-12T18:03:02.814Z,95.30
2018-07-12T18:05:31.479Z,95.40
2018-07-12T18:08:00.057Z,96.00
2018-07-12T18:10:28.603Z,96.80
2018-07-12T18:12:57.139Z,96.80
2018-07-12T18:15:25.816Z,96.90
2018-07-12T18:17:54.557Z,96.70
2018-07-12T18:20:23.312Z,97.10
2018-07-12T18:22:52.152Z,97.40
2018-07-12T18:25:20.707Z,97.80
2018-07-12T18:27:49.136Z,98.30
2018-07-12T18:30:17.391Z,98.60
2018-07-12T18:32:45.709Z,99.30
2018-07-12T18:35:14.051Z,99.80
2018-07-12T18:37:42.402Z,99.70
2018-07-12T18:40:10.690Z,99.90
2018-07-12T18:42:39.125Z,99.70
2018-07-12T18:45:07.409Z,99.70
2018-07-12T18:47:35.700Z,99.90
2018-07-12T18:50:04.173Z,99.90
2018-07-12T18:52:32.521Z,99.90
2018-07-12T18:55:00.840Z,99.90
2018-07-12T18:57:29.094Z,99.90
2018-07-12T18:59:57.358Z,99.90
2018-07-12T19:02:25.676Z,99.90
2018-07-12T19:04:54.056Z,99.90
2018-07-12T19:07:22.381Z,99.90
2018-07-12T19:09:50.670Z,99.90
2018-07-12T19:12:18.968Z,99.90
2018-07-12T19:14:47.276Z,99.90
2018-07-12T19:17:15.595Z,99.90
2018-07-12T19:19:43.889Z,99.90
2018-07-12T19:22:12.179Z,99.90
2018-07-12T19:24:40.660Z,99.90
2018-07-12T19:27:08.937Z,99.90
2018-07-12T19:29:37.218Z,99.90
2018-07-12T19:32:05.504Z,99.90
2018-07-12T19:34:33.860Z,99.90
2018-07-12T19:37:02.402Z,99.90
2018-07-12T19:39:30.924Z,99.90
2018-07-12T19:41:59.479Z,99.90
2018-07-12T19:44:27.814Z,99.90
2018-07-12T19:46:56.114Z,99.90
2018-07-12T19:49:24.422Z,99.90
2018-07-12T19:51:55.719Z,99.90
2018-07-12T19:54:26.058Z,99.90
2018-07-12T19:56:54.459Z,99.90
2018-07-12T19:59:22.720Z,99.90
2018-07-12T20:01:51.026Z,99.90
2018-07-12T20:04:19.274Z,99.90
2018-07-12T20:06:47.578Z,99.90
2018-07-12T20:09:16.100Z,99.90
2018-07-12T20:11:44.403Z,99.90
2018-07-12T20:14:12.708Z,99.90
2018-07-12T20:16:41.034Z,99.90
2018-07-12T20:19:10.224Z,99.90
2018-07-12T20:21:38.526Z,99.90
2018-07-12T20:24:07.374Z,99.90
2018-07-12T20:26:35.740Z,99.90
2018-07-12T20:29:04.223Z,99.90
2018-07-12T20:31:32.539Z,99.90
2018-07-12T20:34:01.062Z,99.90
2018-07-12T20:36:29.400Z,99.90
2018-07-12T20:38:57.808Z,99.90
2018-07-12T20:41:26.152Z,99.90
2018-07-12T20:43:54.539Z,99.90
2018-07-12T20:46:22.894Z,99.90
2018-07-12T20:48:51.274Z,99.90
2018-07-12T20:51:19.536Z,99.90
2018-07-12T20:53:47.813Z,99.90
2018-07-12T20:56:16.095Z,99.90
2018-07-12T20:58:44.394Z,99.90
2018-07-12T21:01:12.699Z,99.90
2018-07-12T21:03:40.994Z,99.90
2018-07-12T21:06:09.262Z,99.90
2018-07-12T21:08:37.510Z,99.90
2018-07-12T21:11:05.774Z,99.90
2018-07-12T21:13:34.358Z,99.90
2018-07-12T21:16:02.609Z,99.90
2018-07-12T21:18:30.938Z,99.90
2018-07-12T21:20:59.189Z,99.90
2018-07-12T21:23:27.460Z,99.90
2018-07-12T21:25:55.734Z,99.90
2018-07-12T21:28:24.058Z,99.90
2018-07-12T21:30:52.393Z,99.90
2018-07-12T21:33:20.775Z,99.90
2018-07-12T21:35:49.067Z,99.90
2018-07-12T21:38:17.348Z,99.90
2018-07-12T21:40:45.593Z,99.90
2018-07-12T21:43:13.860Z,99.90
2018-07-12T21:45:42.229Z,99.90
2018-07-12T21:48:10.538Z,99.90
2018-07-12T21:50:38.810Z,99.90
2018-07-12T21:53:07.133Z,99.90
2018-07-12T21:55:35.472Z,99.90
2018-07-12T21:58:03.830Z,99.90
2018-07-12T22:00:33.053Z,99.90
2018-07-12T22:03:01.618Z,99.90
2018-07-12T22:05:29.870Z,99.90
2018-07-12T22:08:14.880Z,99.90
2018-07-12T22:10:44.056Z,99.90
2018-07-12T22:13:12.812Z,99.90
2018-07-12T22:15:41.094Z,99.90
2018-07-12T22:18:09.636Z,99.90
2018-07-12T22:20:37.887Z,99.90
2018-07-12T22:23:06.131Z,99.90
2018-07-12T22:25:34.446Z,99.90
2018-07-12T22:28:02.704Z,99.90
2018-07-12T22:30:31.260Z,99.90
2018-07-12T22:33:00.614Z,99.90
2018-07-12T22:35:28.946Z,99.90
2018-07-12T22:37:58.122Z,99.90
2018-07-12T22:40:26.498Z,99.90
2018-07-12T22:42:54.839Z,99.90
2018-07-12T22:45:23.186Z,99.90
2018-07-12T22:47:51.450Z,99.90
2018-07-12T22:50:19.743Z,99.90
2018-07-12T22:52:48.030Z,99.90
2018-07-12T22:55:16.291Z,99.90
2018-07-12T22:57:44.654Z,99.90
2018-07-12T23:00:13.640Z,99.90
2018-07-12T23:02:42.014Z,99.90
2018-07-12T23:05:10.296Z,99.90
2018-07-12T23:07:38.572Z,99.90
2018-07-12T23:10:06.877Z,99.90
2018-07-12T23:12:35.160Z,99.90
2018-07-12T23:15:09.929Z,99.90
2018-07-12T23:17:38.196Z,99.90
2018-07-12T23:20:06.509Z,99.90
2018-07-12T23:22:34.770Z,99.90
2018-07-12T23:25:03.052Z,99.90
2018-07-12T23:27:31.364Z,99.90
2018-07-12T23:29:59.671Z,99.90
2018-07-12T23:32:27.972Z,99.90
2018-07-12T23:34:56.295Z,99.90
2018-07-12T23:37:24.597Z,99.90
2018-07-12T23:39:52.925Z,99.90
2018-07-12T23:42:21.246Z,99.90
2018-07-12T23:44:49.495Z,99.90
2018-07-12T23:47:17.880Z,99.90
2018-07-12T23:49:46.174Z,99.90
2018-07-12T23:52:14.456Z,99.90
2018-07-12T23:54:42.718Z,99.90
2018-07-12T23:57:11.008Z,99.90
2018-07-12T23:59:39.367Z,99.90
